Terminal Aerodrome Forecast
Issued by NWS Chicago, IL

Home | Current Version | Previous Version | Text Only | Print | Product List | Glossary Off
Versions: 1 2 3 4 5 6 7 8 9 10 11 12 13 14 15 16 17 18 19 20 21 22 23 24 25 26 27 28 29 30 31 32 33 34 35 36 37 38 39 40 41 42 43 44

000
FTUS43 KLOT 051334 AAA
TAFRFD
TAF AMD
KRFD 051334Z 0514/0612 08009KT P6SM BKN010 BKN090
     FM052100 10011KT P6SM SCT015 BKN090
     FM060200 09008KT 6SM BR BKN025 OVC035
     FM060600 09007KT 4SM BR OVC008=

USA.gov is the U.S. government's official web portal to all federal, state and local government web resources and services.